Time;durP1;ratioP1;P1;durP2;ratioP2;P2;SDS_P1;SDS_P2;PMS_P1;PMS_P2;Temp;Humidity;BMP_temperature;BMP_pressure;BME280_temperature;BME280_humidity;BME280_pressure;Samples;Min_cycle;Max_cycle;Signal;HPM_P1;HPM_P2
2021/11/27 00:02:22;;;;;;;;;3.50;2.00;;;;;7.12;71.75;98662.31;4963467;28;45314;-50
2021/11/27 00:04:48;;;;;;;;;5.00;5.00;;;;;7.09;71.96;98666.94;4963124;28;46018;-47
2021/11/27 00:07:13;;;;;;;;;4.50;4.50;;;;;7.05;71.87;98666.38;4963308;28;45519;-50
2021/11/27 00:09:39;;;;;;;;;5.00;2.75;;;;;7.02;72.28;98655.28;4963424;28;45443;-48
2021/11/27 00:12:05;;;;;;;;;4.00;3.00;;;;;7.01;72.17;98659.69;4958717;28;45574;-49
2021/11/27 00:14:33;;;;;;;;;5.00;2.50;;;;;6.99;71.84;98661.59;4963232;28;45373;-48
2021/11/27 00:16:59;;;;;;;;;2.75;2.75;;;;;6.98;72.00;98652.09;4962987;28;45449;-48
2021/11/27 00:19:24;;;;;;;;;1.75;1.75;;;;;6.95;71.75;98657.53;4961174;28;45402;-49
2021/11/27 00:21:50;;;;;;;;;3.00;3.00;;;;;6.92;72.02;98652.56;4962443;28;45452;-48
2021/11/27 00:24:15;;;;;;;;;6.75;5.00;;;;;6.92;72.26;98653.38;4962716;28;46392;-49
2021/11/27 00:26:41;;;;;;;;;2.50;2.50;;;;;6.89;72.26;98653.63;4962906;28;45422;-51
2021/11/27 00:29:08;;;;;;;;;4.00;2.00;;;;;6.88;72.07;98646.75;4971076;28;45497;-48
2021/11/27 00:31:36;;;;;;;;;4.00;2.75;;;;;6.87;72.08;98650.31;4962489;28;45370;-48
2021/11/27 00:34:02;;;;;;;;;5.00;2.00;;;;;6.85;72.09;98659.22;4962684;28;45390;-48
2021/11/27 00:36:28;;;;;;;;;6.00;3.00;;;;;6.82;71.90;98654.22;4962599;28;45221;-47
2021/11/27 00:38:54;;;;;;;;;6.00;2.00;;;;;6.81;71.85;98645.53;4962771;28;45448;-52
2021/11/27 00:41:20;;;;;;;;;6.00;2.50;;;;;6.81;72.18;98657.78;4962531;28;45521;-52
2021/11/27 00:43:46;;;;;;;;;5.50;2.50;;;;;6.83;71.86;98655.88;4962671;28;46892;-52
2021/11/27 00:46:12;;;;;;;;;3.00;1.25;;;;;6.85;72.12;98652.19;4962734;28;45502;-48
2021/11/27 00:48:37;;;;;;;;;3.00;2.00;;;;;6.88;71.70;98649.34;4961929;28;45521;-50
2021/11/27 00:51:07;;;;;;;;;5.50;3.00;;;;;6.91;71.61;98649.09;4961017;28;45603;-51
2021/11/27 00:53:33;;;;;;;;;3.00;1.25;;;;;6.92;71.63;98663.03;4960430;28;45700;-50
2021/11/27 00:55:59;;;;;;;;;6.75;3.00;;;;;6.96;71.75;98659.22;4962095;28;45489;-53
2021/11/27 00:58:25;;;;;;;;;6.75;2.25;;;;;6.98;71.56;98654.69;4962502;28;45283;-52
2021/11/27 01:00:54;;;;;;;;;7.75;3.00;;;;;6.96;71.65;98660.06;4962051;28;45542;-52
2021/11/27 01:03:23;;;;;;;;;3.50;2.50;;;;;6.95;70.75;98668.00;4961719;28;45409;-52
2021/11/27 01:05:49;;;;;;;;;2.25;2.00;;;;;6.91;71.21;98659.56;4961858;28;45326;-52
2021/11/27 01:08:15;;;;;;;;;4.50;2.75;;;;;6.89;70.66;98665.88;4961952;28;45615;-51
2021/11/27 01:10:56;;;;;;;;;2.00;1.75;;;;;6.82;70.26;98641.97;4960369;28;45519;-53
2021/11/27 01:13:22;;;;;;;;;2.75;2.75;;;;;6.77;69.93;98638.88;4960975;28;45492;-51
2021/11/27 01:15:48;;;;;;;;;2.00;2.00;;;;;6.71;69.72;98636.72;4961027;28;45589;-49
2021/11/27 01:18:15;;;;;;;;;2.25;1.00;;;;;6.65;69.77;98634.59;4960832;28;45432;-49
2021/11/27 01:20:45;;;;;;;;;5.00;2.00;;;;;6.60;69.93;98629.69;4962231;28;45319;-52
2021/11/27 01:23:11;;;;;;;;;3.00;0.25;;;;;6.55;69.39;98631.00;4962203;28;46156;-52
2021/11/27 01:25:37;;;;;;;;;1.25;1.00;;;;;6.48;69.03;98630.66;4962304;28;45314;-48
2021/11/27 01:28:03;;;;;;;;;0.00;0.00;;;;;6.42;68.81;98628.50;4962180;28;45172;-50
2021/11/27 01:30:29;;;;;;;;;2.00;0.25;;;;;6.38;69.03;98624.44;4953540;28;45515;-53
2021/11/27 01:32:55;;;;;;;;;1.50;0.75;;;;;6.35;68.60;98635.13;4960596;28;46147;-53
2021/11/27 01:35:21;;;;;;;;;0.00;0.00;;;;;6.31;67.91;98634.53;4959827;28;45382;-53
2021/11/27 01:37:46;;;;;;;;;0.00;0.00;;;;;6.26;68.06;98628.00;4960287;28;45676;-52
2021/11/27 01:40:16;;;;;;;;;0.25;0.00;;;;;6.21;66.73;98628.31;4960344;28;45534;-51
2021/11/27 01:42:42;;;;;;;;;0.00;0.00;;;;;6.18;67.45;98625.13;4961343;28;45231;-48
2021/11/27 01:45:10;;;;;;;;;0.00;0.00;;;;;6.15;67.44;98623.56;4961905;28;45337;-53
2021/11/27 01:47:36;;;;;;;;;2.00;0.00;;;;;6.09;67.54;98637.09;4961804;28;45382;-52
2021/11/27 01:50:02;;;;;;;;;0.00;0.00;;;;;6.05;67.78;98631.25;4962145;28;45398;-50
2021/11/27 01:52:28;;;;;;;;;0.25;0.00;;;;;6.01;67.84;98635.06;4961863;28;45339;-49
2021/11/27 01:54:54;;;;;;;;;2.00;1.00;;;;;6.01;68.89;98634.22;4961900;28;45265;-49
2021/11/27 01:57:19;;;;;;;;;1.50;0.00;;;;;5.99;68.61;98634.31;4961930;28;45373;-51
2021/11/27 01:59:47;;;;;;;;;0.00;0.00;;;;;6.00;68.20;98630.75;4962147;28;45314;-49
2021/11/27 02:02:14;;;;;;;;;0.25;0.00;;;;;6.02;68.23;98623.66;4961143;28;45326;-50
2021/11/27 02:04:40;;;;;;;;;0.00;0.00;;;;;6.03;68.41;98627.94;4961519;28;45429;-51
2021/11/27 02:07:06;;;;;;;;;1.00;1.00;;;;;6.04;68.23;98631.38;4962107;28;45232;-50
2021/11/27 02:09:35;;;;;;;;;1.00;0.75;;;;;6.06;68.54;98635.53;4960317;28;45303;-49
2021/11/27 02:12:04;;;;;;;;;0.00;0.00;;;;;6.09;68.20;98626.66;4958167;28;46324;-51
2021/11/27 02:14:29;;;;;;;;;0.00;0.00;;;;;6.09;68.46;98626.66;4961691;28;45405;-49
2021/11/27 02:16:55;;;;;;;;;3.00;1.00;;;;;6.10;68.90;98621.28;4961805;28;45309;-49
2021/11/27 02:19:21;;;;;;;;;3.25;1.00;;;;;6.10;68.79;98623.09;4961432;28;45416;-48
2021/11/27 02:21:48;;;;;;;;;0.25;0.00;;;;;6.10;69.44;98623.09;4961298;28;45370;-48
2021/11/27 02:24:16;;;;;;;;;1.75;1.00;;;;;6.11;69.38;98619.50;4961508;28;45374;-50
2021/11/27 02:26:44;;;;;;;;;1.00;1.00;;;;;6.11;69.26;98607.28;4961594;28;45324;-48
2021/11/27 02:29:19;;;;;;;;;0.50;0.00;;;;;6.09;69.34;98603.94;4961706;28;46429;-52
2021/11/27 02:31:45;;;;;;;;;0.00;0.00;;;;;6.09;69.35;98605.75;4961341;28;46321;-48
2021/11/27 02:34:10;;;;;;;;;1.25;0.50;;;;;6.07;68.84;98607.59;4961419;28;45474;-49
2021/11/27 02:36:39;;;;;;;;;1.50;1.50;;;;;6.05;69.40;98605.13;4961579;28;45311;-49
2021/11/27 02:39:08;;;;;;;;;0.00;0.00;;;;;6.02;69.58;98602.75;4961513;28;45350;-51
2021/11/27 02:41:35;;;;;;;;;1.00;0.00;;;;;5.97;69.27;98606.63;4960958;28;45607;-47
2021/11/27 02:44:00;;;;;;;;;2.50;0.00;;;;;5.92;69.29;98601.75;4960081;28;45469;-50
2021/11/27 02:46:26;;;;;;;;;1.25;0.00;;;;;5.85;68.12;98583.06;4960783;28;45172;-50
2021/11/27 02:48:51;;;;;;;;;0.75;0.00;;;;;5.79;68.35;98583.50;4962571;28;45469;-49
2021/11/27 02:51:17;;;;;;;;;1.00;1.00;;;;;5.77;68.86;98588.03;4963960;28;46255;-47
2021/11/27 02:53:43;;;;;;;;;0.00;0.00;;;;;5.77;69.12;98589.81;4964574;28;45436;-51
2021/11/27 02:56:08;;;;;;;;;0.25;0.00;;;;;5.75;68.79;98589.91;4965033;28;45208;-52
2021/11/27 02:58:34;;;;;;;;;0.00;0.00;;;;;5.75;69.72;98583.84;4964603;28;45563;-52
2021/11/27 03:01:03;;;;;;;;;1.25;0.00;;;;;5.75;69.41;98578.63;4964527;28;45811;-52
2021/11/27 03:03:29;;;;;;;;;0.50;0.00;;;;;5.75;69.69;98576.00;4964043;28;45273;-51
2021/11/27 03:05:56;;;;;;;;;0.00;0.00;;;;;5.74;68.85;98566.50;4963880;28;45382;-52
2021/11/27 03:08:21;;;;;;;;;0.00;0.00;;;;;5.73;68.90;98570.91;4964699;28;45240;-48
2021/11/27 03:10:47;;;;;;;;;1.00;0.00;;;;;5.71;69.14;98566.75;4960353;28;46167;-50
2021/11/27 03:13:13;;;;;;;;;0.00;0.00;;;;;5.71;69.07;98564.97;4962881;28;45431;-51
2021/11/27 03:15:41;;;;;;;;;2.75;0.75;;;;;5.69;68.53;98561.66;4964754;28;45313;-48
2021/11/27 03:18:11;;;;;;;;;0.00;0.00;;;;;5.67;68.88;98570.53;4964205;28;46300;-53
2021/11/27 03:20:37;;;;;;;;;0.00;0.00;;;;;5.66;68.73;98564.47;4963927;28;46088;-54
2021/11/27 03:23:03;;;;;;;;;1.75;0.25;;;;;5.65;69.31;98554.13;4963634;28;45816;-52
2021/11/27 03:25:28;;;;;;;;;3.25;0.00;;;;;5.62;68.66;98555.19;4964351;28;45393;-54
2021/11/27 03:27:54;;;;;;;;;2.00;0.00;;;;;5.62;68.72;98555.19;4964245;28;45529;-51
2021/11/27 03:30:20;;;;;;;;;0.00;0.00;;;;;5.59;69.04;98556.25;4963937;28;45374;-53
2021/11/27 03:32:46;;;;;;;;;0.00;0.00;;;;;5.57;69.23;98550.31;4963776;28;45381;-50
2021/11/27 03:35:12;;;;;;;;;0.00;0.00;;;;;5.57;68.76;98541.63;4964240;28;45409;-50
2021/11/27 03:37:39;;;;;;;;;0.00;0.00;;;;;5.56;69.02;98529.53;4963871;28;45377;-52
2021/11/27 03:40:06;;;;;;;;;1.50;0.00;;;;;5.55;68.72;98539.16;4964015;28;46184;-49
2021/11/27 03:42:32;;;;;;;;;0.50;0.00;;;;;5.53;69.42;98533.22;4963499;28;45314;-53
2021/11/27 03:44:58;;;;;;;;;1.00;0.00;;;;;5.51;69.17;98531.66;4963761;28;45322;-53
2021/11/27 03:47:24;;;;;;;;;0.00;0.00;;;;;5.52;69.60;98528.09;4963725;28;45370;-53
2021/11/27 03:49:51;;;;;;;;;1.00;0.00;;;;;5.50;68.64;98527.38;4963720;28;45375;-53
2021/11/27 03:52:17;;;;;;;;;0.00;0.00;;;;;5.46;68.87;98518.94;4946170;28;45378;-48
2021/11/27 03:54:43;;;;;;;;;1.00;1.00;;;;;5.44;68.81;98520.81;4964081;28;45332;-49
2021/11/27 03:57:08;;;;;;;;;0.00;0.00;;;;;5.46;68.64;98512.88;4964008;28;45275;-51
2021/11/27 03:59:34;;;;;;;;;0.00;0.00;;;;;5.44;68.92;98515.59;4963205;28;46195;-53
2021/11/27 04:02:00;;;;;;;;;0.00;0.00;;;;;5.41;68.64;98512.38;4963410;28;45539;-53
2021/11/27 04:04:26;;;;;;;;;0.00;0.00;;;;;5.36;68.61;98511.88;4963525;28;45323;-53
2021/11/27 04:06:51;;;;;;;;;0.50;0.50;;;;;5.35;69.27;98502.38;4963973;28;45171;-50
2021/11/27 04:09:17;;;;;;;;;2.00;0.00;;;;;5.35;69.33;98497.16;4962084;28;46031;-52
2021/11/27 04:11:43;;;;;;;;;0.00;0.00;;;;;5.31;68.92;98494.78;4958847;28;45507;-52
2021/11/27 04:14:08;;;;;;;;;0.00;0.00;;;;;5.30;69.30;98506.19;4963577;28;45367;-52
2021/11/27 04:16:34;;;;;;;;;0.00;0.00;;;;;5.29;68.99;98483.66;4962515;28;45395;-48
2021/11/27 04:18:59;;;;;;;;;0.00;0.00;;;;;5.27;68.48;98482.06;4963369;28;45422;-50
2021/11/27 04:21:25;;;;;;;;;0.00;0.00;;;;;5.22;69.35;98472.00;4963249;28;45364;-52
2021/11/27 04:23:51;;;;;;;;;0.00;0.00;;;;;5.23;69.63;98468.44;4963312;28;45323;-51
2021/11/27 04:26:19;;;;;;;;;1.50;1.00;;;;;5.20;69.35;98480.84;4961904;28;45268;-52
2021/11/27 04:28:47;;;;;;;;;1.25;0.00;;;;;5.19;69.34;98480.03;4962798;28;46178;-52
2021/11/27 04:31:17;;;;;;;;;0.75;0.00;;;;;5.16;69.15;98475.03;4962628;28;45355;-49
2021/11/27 04:33:42;;;;;;;;;0.00;0.00;;;;;5.13;68.87;98483.06;4963128;28;45246;-51
2021/11/27 04:36:08;;;;;;;;;3.50;0.00;;;;;5.15;69.18;98472.53;4963645;28;45548;-50
2021/11/27 04:38:34;;;;;;;;;0.00;0.00;;;;;5.15;69.39;98481.22;4963054;28;45294;-49
2021/11/27 04:40:59;;;;;;;;;0.25;0.00;;;;;5.16;69.43;98477.66;4963084;28;45228;-53
2021/11/27 04:43:25;;;;;;;;;0.00;0.00;;;;;5.18;68.88;98480.97;4963371;28;45425;-51
2021/11/27 04:45:50;;;;;;;;;0.00;0.00;;;;;5.16;68.65;98477.66;4963245;28;45209;-51
2021/11/27 04:48:16;;;;;;;;;0.25;0.00;;;;;5.17;69.48;98483.69;4962756;28;45899;-51
2021/11/27 04:50:42;;;;;;;;;2.00;0.00;;;;;5.19;69.02;98487.03;4963061;28;45543;-53
2021/11/27 04:53:08;;;;;;;;;2.00;0.00;;;;;5.15;68.91;98493.44;4962119;28;45453;-52
2021/11/27 04:55:34;;;;;;;;;1.25;0.00;;;;;5.15;69.30;98489.03;4962960;28;45326;-53
2021/11/27 04:58:00;;;;;;;;;0.00;0.00;;;;;5.15;68.86;98485.59;4962730;28;45484;-53
2021/11/27 05:00:36;;;;;;;;;1.00;0.00;;;;;5.16;69.13;98492.47;4963076;28;45398;-54
2021/11/27 05:03:03;;;;;;;;;1.00;0.00;;;;;5.16;68.93;98485.47;4962257;28;45517;-51
2021/11/27 05:05:28;;;;;;;;;1.00;1.00;;;;;5.15;69.22;98488.22;4962912;28;45390;-50
2021/11/27 05:07:55;;;;;;;;;0.00;0.00;;;;;5.14;69.31;98486.53;4962427;28;46116;-52
2021/11/27 05:10:21;;;;;;;;;2.00;0.00;;;;;5.15;68.60;98486.44;4959897;28;45359;-53
2021/11/27 05:12:47;;;;;;;;;1.00;0.00;;;;;5.21;69.28;98475.53;4944978;28;45632;-50
2021/11/27 05:15:13;;;;;;;;;0.00;0.00;;;;;5.23;68.10;98467.59;4962981;28;45395;-50
2021/11/27 05:17:39;;;;;;;;;0.00;0.00;;;;;5.23;69.05;98468.44;4962333;28;46108;-48
2021/11/27 05:20:06;;;;;;;;;0.50;0.00;;;;;5.27;68.46;98448.97;4962649;28;45343;-49
2021/11/27 05:22:31;;;;;;;;;1.25;0.00;;;;;5.29;68.71;98452.31;4962443;28;45294;-51
2021/11/27 05:24:59;;;;;;;;;1.75;0.00;;;;;5.31;68.88;98457.41;4962625;28;45223;-55
2021/11/27 05:27:25;;;;;;;;;0.00;0.00;;;;;5.31;69.12;98441.75;4962263;28;46089;-55
2021/11/27 05:29:50;;;;;;;;;1.00;0.00;;;;;5.36;69.19;98430.97;4962384;28;45273;-53
2021/11/27 05:35:08;;;;;;;;;1.75;0.00;;;;;5.46;68.41;98437.19;4943328;28;45447;-54
2021/11/27 05:37:33;;;;;;;;;4.00;0.00;;;;;5.48;68.56;98417.81;4962172;28;46365;-53
2021/11/27 05:40:00;;;;;;;;;1.50;0.00;;;;;5.54;67.76;98427.00;4962432;28;45298;-54
2021/11/27 05:42:26;;;;;;;;;2.25;0.00;;;;;5.59;68.56;98423.06;4962046;28;45248;-49
2021/11/27 05:44:53;;;;;;;;;1.25;0.00;;;;;5.62;68.17;98429.03;4962230;28;45524;-51
2021/11/27 05:47:19;;;;;;;;;1.00;0.00;;;;;5.60;68.08;98429.94;4961518;28;45341;-53
2021/11/27 05:49:44;;;;;;;;;0.75;0.00;;;;;5.63;68.18;98422.84;4962131;28;45270;-48
2021/11/27 05:52:10;;;;;;;;;0.00;0.00;;;;;5.64;67.85;98420.09;4962266;28;45370;-54
2021/11/27 05:54:36;;;;;;;;;1.00;0.00;;;;;5.66;67.55;98419.97;4962274;28;45413;-53
2021/11/27 05:57:02;;;;;;;;;0.75;0.00;;;;;5.69;67.44;98431.03;4961608;28;45410;-54
2021/11/27 05:59:29;;;;;;;;;0.00;0.00;;;;;5.72;67.81;98427.38;4961891;28;45230;-52
2021/11/27 06:01:54;;;;;;;;;1.75;0.00;;;;;5.72;68.41;98430.81;4961554;28;45314;-52
2021/11/27 06:04:20;;;;;;;;;1.75;0.00;;;;;5.76;67.38;98431.38;4961000;28;45509;-51
2021/11/27 06:06:45;;;;;;;;;0.75;0.00;;;;;5.78;67.48;98432.13;4960855;28;45350;-52
2021/11/27 06:09:11;;;;;;;;;2.00;0.00;;;;;5.80;68.01;98425.00;4961390;28;45330;-54
2021/11/27 06:11:36;;;;;;;;;5.00;0.00;;;;;5.79;67.24;98423.34;4956693;28;45489;-53
2021/11/27 06:14:02;;;;;;;;;1.00;0.00;;;;;5.78;67.48;98413.84;4962033;28;45340;-50
2021/11/27 06:16:27;;;;;;;;;0.50;0.00;;;;;5.78;67.11;98417.28;4961221;28;45919;-52
2021/11/27 06:18:53;;;;;;;;;0.50;0.25;;;;;5.78;66.90;98419.06;4960680;28;45334;-52
2021/11/27 06:21:21;;;;;;;;;0.00;0.00;;;;;5.74;67.82;98417.63;4961092;28;45500;-53
2021/11/27 06:23:51;;;;;;;;;0.00;0.00;;;;;5.78;67.95;98413.84;4957991;28;45556;-52
2021/11/27 06:26:17;;;;;;;;;0.25;0.00;;;;;5.80;67.55;98414.53;4961169;28;46098;-55
2021/11/27 06:28:43;;;;;;;;;4.25;0.00;;;;;5.76;67.57;98408.72;4961039;28;45467;-51
2021/11/27 06:31:08;;;;;;;;;0.00;0.00;;;;;5.82;67.99;98415.25;4961420;28;45336;-54
2021/11/27 06:33:34;;;;;;;;;4.75;2.50;;;;;5.83;67.58;98417.75;4961612;28;45690;-53
2021/11/27 06:35:59;;;;;;;;;6.25;4.00;;;;;5.83;67.68;98419.53;4960662;28;45608;-50
2021/11/27 06:38:27;;;;;;;;;4.25;3.25;;;;;5.85;67.64;98412.41;4959760;28;45451;-52
2021/11/27 06:40:53;;;;;;;;;5.00;0.00;;;;;5.85;67.65;98407.19;4960747;28;45303;-53
2021/11/27 06:43:18;;;;;;;;;3.25;0.00;;;;;5.85;67.66;98412.41;4961596;28;45429;-49
2021/11/27 06:45:44;;;;;;;;;3.25;0.00;;;;;5.85;68.17;98410.63;4961006;28;46252;-52
2021/11/27 06:48:10;;;;;;;;;0.00;0.00;;;;;5.86;68.39;98416.69;4960949;28;45438;-50
2021/11/27 06:50:35;;;;;;;;;0.00;0.00;;;;;5.85;68.14;98417.66;4961269;28;45316;-52
2021/11/27 06:53:01;;;;;;;;;2.00;1.25;;;;;5.82;68.26;98416.06;4960991;28;45442;-49
2021/11/27 06:55:26;;;;;;;;;3.50;0.00;;;;;5.79;68.10;98411.09;4961210;28;45451;-51
2021/11/27 06:57:52;;;;;;;;;0.50;0.00;;;;;5.77;69.31;98406.94;4960816;28;45388;-54
2021/11/27 07:00:18;;;;;;;;;2.00;0.00;;;;;5.71;69.02;98404.81;4960649;28;45422;-53
2021/11/27 07:02:43;;;;;;;;;0.00;0.00;;;;;5.66;69.02;98399.91;4960153;28;45399;-55
2021/11/27 07:05:08;;;;;;;;;0.00;0.00;;;;;5.60;69.97;98403.00;4961204;28;45342;-54
2021/11/27 07:07:34;;;;;;;;;0.50;0.00;;;;;5.58;69.70;98400.50;4960757;28;45319;-50
2021/11/27 07:10:00;;;;;;;;;1.00;0.00;;;;;5.60;69.71;98406.44;4961231;28;45395;-51
2021/11/27 07:12:25;;;;;;;;;2.00;0.00;;;;;5.59;70.65;98410.00;4959822;28;45419;-54
2021/11/27 07:14:51;;;;;;;;;0.75;0.75;;;;;5.58;70.26;98405.72;4960777;28;46193;-50
2021/11/27 07:17:16;;;;;;;;;0.00;0.00;;;;;5.56;69.64;98409.41;4957803;28;45369;-51
2021/11/27 07:19:42;;;;;;;;;4.25;0.00;;;;;5.58;70.36;98395.28;4954710;28;45383;-51
2021/11/27 07:22:08;;;;;;;;;0.00;0.00;;;;;5.59;70.76;98411.78;4960843;28;45309;-51
2021/11/27 07:24:34;;;;;;;;;0.50;0.00;;;;;5.57;70.11;98408.47;4951102;28;45370;-49
2021/11/27 07:27:04;;;;;;;;;2.00;1.00;;;;;5.54;69.94;98412.16;4943400;28;45272;-51
2021/11/27 07:29:32;;;;;;;;;1.00;0.00;;;;;5.53;70.64;98410.50;4955289;28;45399;-49
2021/11/27 07:31:58;;;;;;;;;0.00;0.00;;;;;5.49;70.53;98416.03;4957887;28;45484;-51
2021/11/27 07:34:23;;;;;;;;;1.25;1.25;;;;;5.47;70.19;98407.50;4962384;28;45307;-51
2021/11/27 07:36:48;;;;;;;;;0.00;0.00;;;;;5.45;70.29;98412.84;4964218;28;45413;-53
2021/11/27 07:39:14;;;;;;;;;0.00;0.00;;;;;5.45;69.95;98411.97;4963884;28;45221;-50
2021/11/27 07:41:39;;;;;;;;;0.75;0.00;;;;;5.40;71.31;98407.13;4963865;28;45301;-50
2021/11/27 07:44:05;;;;;;;;;1.75;0.00;;;;;5.38;71.03;98405.59;4963746;28;45174;-52
2021/11/27 07:46:31;;;;;;;;;0.00;0.00;;;;;5.38;70.62;98421.25;4963607;28;45406;-53
2021/11/27 07:48:56;;;;;;;;;1.25;0.00;;;;;5.38;70.90;98410.81;4958875;28;45236;-55
2021/11/27 07:51:22;;;;;;;;;2.00;0.00;;;;;5.35;70.90;98417.06;4959821;28;45530;-55
2021/11/27 07:53:48;;;;;;;;;0.00;0.00;;;;;5.35;70.48;98419.69;4963539;28;46028;-52
2021/11/27 07:56:14;;;;;;;;;0.00;0.00;;;;;5.36;71.92;98423.13;4963789;28;45474;-53
2021/11/27 07:58:40;;;;;;;;;1.00;0.00;;;;;5.34;70.93;98423.25;4963607;28;45377;-51
2021/11/27 08:01:06;;;;;;;;;0.50;0.00;;;;;5.27;72.02;98422.88;4960028;28;45445;-54
2021/11/27 08:03:31;;;;;;;;;0.00;0.00;;;;;5.29;71.76;98428.81;4963220;28;45449;-55
2021/11/27 08:05:57;;;;;;;;;1.00;0.00;;;;;5.30;71.10;98430.50;4964051;28;45260;-53
2021/11/27 08:08:22;;;;;;;;;1.00;0.00;;;;;5.32;71.56;98431.19;4963395;28;45544;-54
2021/11/27 08:10:48;;;;;;;;;1.50;0.00;;;;;5.33;71.63;98430.25;4961364;28;45343;-53
2021/11/27 08:13:14;;;;;;;;;0.25;0.00;;;;;5.31;71.13;98424.31;4963408;28;45319;-53
2021/11/27 08:15:40;;;;;;;;;0.50;0.00;;;;;5.32;71.13;98428.59;4963390;28;45359;-53
2021/11/27 08:18:05;;;;;;;;;0.00;0.00;;;;;5.33;71.16;98432.03;4962097;28;45672;-53
2021/11/27 08:20:31;;;;;;;;;0.00;0.00;;;;;5.31;71.39;98431.31;4962119;28;45510;-52
2021/11/27 08:22:57;;;;;;;;;3.25;0.00;;;;;5.31;71.33;98434.75;4962336;28;45490;-53
2021/11/27 08:25:22;;;;;;;;;0.50;0.00;;;;;5.31;71.68;98428.72;4957583;28;45389;-53
2021/11/27 08:27:48;;;;;;;;;0.00;0.00;;;;;5.34;71.43;98425.84;4963364;28;45319;-53
2021/11/27 08:30:14;;;;;;;;;0.00;0.00;;;;;5.30;70.98;98430.50;4963368;28;45473;-54
2021/11/27 08:32:41;;;;;;;;;0.75;0.75;;;;;5.28;71.38;98428.91;4963155;28;45331;-53
2021/11/27 08:35:07;;;;;;;;;3.00;0.25;;;;;5.28;71.68;98423.69;4963059;28;45416;-53
2021/11/27 08:37:33;;;;;;;;;0.00;0.00;;;;;5.30;71.73;98427.88;4963076;28;45333;-53
2021/11/27 08:40:00;;;;;;;;;0.00;0.00;;;;;5.36;71.59;98430.97;4963139;28;45433;-49
2021/11/27 08:42:26;;;;;;;;;1.00;1.00;;;;;5.35;71.48;98435.34;4962673;28;45989;-48
2021/11/27 08:44:53;;;;;;;;;0.00;0.00;;;;;5.39;71.53;98446.41;4962126;28;45326;-52
2021/11/27 08:47:19;;;;;;;;;1.00;1.00;;;;;5.36;71.42;98436.19;4962121;28;45525;-49
2021/11/27 08:49:46;;;;;;;;;0.25;0.00;;;;;5.33;70.80;98432.03;4963124;28;45461;-49
2021/11/27 08:52:13;;;;;;;;;1.00;0.00;;;;;5.34;72.41;98436.31;4962676;28;45497;-50
2021/11/27 08:54:39;;;;;;;;;0.00;0.00;;;;;5.38;71.73;98442.13;4962574;28;45306;-49
2021/11/27 08:57:04;;;;;;;;;1.50;0.25;;;;;5.37;71.84;98441.28;4962609;28;45263;-49
2021/11/27 08:59:30;;;;;;;;;3.25;1.25;;;;;5.38;71.32;98435.13;4960402;28;45350;-53
2021/11/27 09:01:57;;;;;;;;;0.00;0.00;;;;;5.42;71.24;98451.38;4958128;28;45302;-51
2021/11/27 09:04:23;;;;;;;;;0.00;0.00;;;;;5.43;71.40;98447.81;4942264;28;45355;-52
2021/11/27 09:06:49;;;;;;;;;2.00;0.00;;;;;5.44;71.45;98450.31;4958442;28;45369;-53
2021/11/27 09:09:15;;;;;;;;;0.00;0.00;;;;;5.49;71.59;98453.44;4962467;28;45477;-52
2021/11/27 09:11:40;;;;;;;;;0.00;0.00;;;;;5.55;71.38;98452.16;4959778;28;45445;-50
2021/11/27 09:14:09;;;;;;;;;2.00;0.00;;;;;5.57;71.13;98450.25;4961729;28;45409;-53
2021/11/27 09:16:34;;;;;;;;;0.00;0.00;;;;;5.62;71.34;98449.91;4959997;28;45381;-48
2021/11/27 09:19:05;;;;;;;;;2.00;0.00;;;;;5.65;70.95;98454.88;4955157;28;45358;-54
2021/11/27 09:21:32;;;;;;;;;0.00;0.00;;;;;5.66;71.75;98465.22;4961748;28;46178;-53
2021/11/27 09:23:58;;;;;;;;;0.75;0.75;;;;;5.68;71.05;98470.31;4955723;28;45510;-54
2021/11/27 09:26:23;;;;;;;;;2.50;1.00;;;;;5.71;72.04;98476.16;4962237;28;45230;-53
2021/11/27 09:28:49;;;;;;;;;0.00;0.00;;;;;5.73;70.95;98470.81;4962344;28;45285;-54
2021/11/27 09:31:14;;;;;;;;;1.00;0.00;;;;;5.78;70.86;98468.69;4958632;28;46186;-54
2021/11/27 09:33:40;;;;;;;;;1.00;1.00;;;;;5.83;71.62;98471.78;4961993;28;45409;-52
2021/11/27 09:36:08;;;;;;;;;0.50;0.00;;;;;5.87;70.75;98465.38;4957568;28;45485;-55
2021/11/27 09:38:36;;;;;;;;;0.00;0.00;;;;;5.92;70.66;98481.53;4958020;28;45554;-58
2021/11/27 09:41:22;;;;;;;;;0.00;0.00;;;;;5.97;71.03;98483.81;4958864;28;45912;-53
2021/11/27 09:43:50;;;;;;;;;0.00;0.00;;;;;6.03;71.14;98493.81;4961471;28;45295;-52
2021/11/27 09:46:19;;;;;;;;;1.25;0.25;;;;;6.08;71.48;98492.53;4961733;28;45452;-49
2021/11/27 09:48:49;;;;;;;;;0.00;0.00;;;;;6.11;71.11;98494.06;4961877;28;45394;-53
2021/11/27 09:51:15;;;;;;;;;2.25;1.00;;;;;6.15;70.66;98495.47;4941758;28;45674;-54
2021/11/27 09:53:42;;;;;;;;;0.50;0.50;;;;;6.23;70.90;98500.94;4960957;28;45679;-49
2021/11/27 09:56:08;;;;;;;;;0.25;0.00;;;;;6.34;71.01;98506.19;4961213;28;45363;-54
2021/11/27 09:58:35;;;;;;;;;0.00;0.00;;;;;6.44;70.73;98496.66;4961536;28;45492;-53
2021/11/27 10:01:06;;;;;;;;;1.75;0.25;;;;;6.52;70.71;98496.06;4952227;28;45343;-55
2021/11/27 10:03:33;;;;;;;;;0.00;0.00;;;;;6.58;69.91;98500.00;4960935;28;45444;-54
2021/11/27 10:06:00;;;;;;;;;0.00;0.00;;;;;6.57;70.47;98493.94;4952899;28;45375;-55
2021/11/27 10:08:26;;;;;;;;;1.50;0.00;;;;;6.53;70.13;98502.13;4956865;28;45505;-56
2021/11/27 10:10:52;;;;;;;;;1.75;1.00;;;;;6.51;70.38;98490.97;4956965;28;45666;-58
2021/11/27 10:13:20;;;;;;;;;0.00;0.00;;;;;6.58;70.32;98502.59;4954759;28;46737;-56
2021/11/27 10:15:46;;;;;;;;;0.50;0.00;;;;;6.62;69.80;98502.22;4957951;28;45331;-55
2021/11/27 10:18:22;;;;;;;;;1.25;0.00;;;;;6.65;70.00;98501.19;4954597;28;45446;-56
2021/11/27 10:21:34;;;;;;;;;0.00;0.00;;;;;6.67;69.47;98501.88;4956136;28;46486;-58
2021/11/27 10:24:16;;;;;;;;;1.50;0.50;;;;;6.66;69.85;98511.50;4947442;28;45438;-55
2021/11/27 10:26:43;;;;;;;;;1.75;0.00;;;;;6.67;70.05;98514.97;4959001;28;45279;-56
2021/11/27 10:29:26;;;;;;;;;0.00;0.00;;;;;6.69;69.57;98507.81;4961478;28;45343;-55
2021/11/27 10:32:06;;;;;;;;;1.25;1.00;;;;;6.67;69.61;98507.13;4956426;28;45496;-53
2021/11/27 10:34:32;;;;;;;;;0.00;0.00;;;;;6.61;70.00;98508.41;4961097;28;45441;-54
2021/11/27 10:37:02;;;;;;;;;0.25;0.25;;;;;6.63;70.13;98508.28;4961445;28;45458;-55
2021/11/27 10:39:28;;;;;;;;;4.75;1.25;;;;;6.60;69.82;98506.75;4957769;28;45321;-53
2021/11/27 10:42:10;;;;;;;;;2.25;2.25;;;;;6.64;70.41;98517.84;4960827;28;45467;-54
2021/11/27 10:44:37;;;;;;;;;1.00;1.00;;;;;6.67;69.61;98505.31;4960820;28;45253;-54
2021/11/27 10:47:18;;;;;;;;;0.75;0.75;;;;;6.68;70.00;98512.22;4961103;28;45366;-56
2021/11/27 10:49:53;;;;;;;;;0.00;0.00;;;;;6.70;69.74;98507.69;4954543;28;45644;-59
2021/11/27 10:52:21;;;;;;;;;0.75;0.75;;;;;6.71;69.55;98514.63;4956704;28;45576;-51
2021/11/27 10:54:48;;;;;;;;;0.00;0.00;;;;;6.74;69.96;98507.47;4960767;28;45406;-56
2021/11/27 10:57:35;;;;;;;;;0.50;0.50;;;;;6.79;69.34;98508.75;4961248;28;45422;-56
2021/11/27 11:00:30;;;;;;;;;0.00;0.00;;;;;6.81;69.15;98512.09;4954544;28;45294;-54
2021/11/27 11:02:56;;;;;;;;;1.00;0.75;;;;;6.85;69.21;98505.66;4954691;28;45513;-54
2021/11/27 11:05:36;;;;;;;;;1.75;0.00;;;;;6.90;69.08;98502.69;4949166;28;45267;-61
2021/11/27 11:08:03;;;;;;;;;0.00;0.00;;;;;6.96;69.64;98517.91;4960016;28;45345;-57
2021/11/27 11:10:32;;;;;;;;;1.00;0.00;;;;;7.05;68.76;98513.72;4955120;28;45303;-57
2021/11/27 11:13:04;;;;;;;;;0.00;0.00;;;;;7.07;69.19;98522.25;4960953;28;45511;-59
2021/11/27 11:15:42;;;;;;;;;0.50;0.00;;;;;7.08;68.64;98521.31;4964484;28;45461;-58
2021/11/27 11:18:12;;;;;;;;;1.00;0.50;;;;;7.14;68.68;98521.66;4967881;28;45426;-53
2021/11/27 11:20:44;;;;;;;;;0.00;0.00;;;;;7.19;68.18;98518.66;4967040;28;45228;-58
2021/11/27 11:23:15;;;;;;;;;0.00;0.00;;;;;7.25;69.02;98523.38;4963705;28;45523;-55
2021/11/27 11:26:13;;;;;;;;;1.00;0.00;;;;;7.38;68.65;98524.06;4964135;28;45295;-57
2021/11/27 11:28:49;;;;;;;;;1.00;1.00;;;;;7.57;68.53;98518.97;4961362;28;45346;-56
2021/11/27 11:31:21;;;;;;;;;0.00;0.00;;;;;7.74;68.35;98532.47;4961008;28;45322;-55
2021/11/27 11:33:51;;;;;;;;;0.75;0.75;;;;;7.82;67.91;98527.44;4963638;28;45263;-57
2021/11/27 11:36:19;;;;;;;;;1.00;1.00;;;;;7.86;67.80;98528.00;4964211;28;45362;-57
2021/11/27 11:38:47;;;;;;;;;1.25;1.00;;;;;7.88;67.61;98531.31;4964206;28;45319;-62
2021/11/27 11:41:15;;;;;;;;;1.00;1.00;;;;;7.89;67.71;98535.59;4963787;28;45505;-55
2021/11/27 11:43:41;;;;;;;;;0.75;0.75;;;;;7.95;67.75;98527.22;4963617;28;46316;-54
2021/11/27 11:46:07;;;;;;;;;1.00;1.00;;;;;8.00;67.32;98535.56;4963215;28;45337;-54